Burry Port, United Kingdom
Current Conditions -  °F | °C
As of 11:50 PM on Friday 28 Nov 2014 (Local Time) from EGOP Reporting Station
Broken Clouds Broken Clouds  
Wind Chill: 50°   Ceiling: 2300
Heat Index: 50°   Visibility: 4mi
Dew Point: 46°   Wind: 8mph
Humidity: 87%   Direction: 50°NE
Pressure: 29.68"   Gusts: NA
Location:  51.68°N, 4.25°W
Report Text: EGOP 282350Z AUTO 05007KT 7000 // BKN023/// 10/08 Q1005
Loading
Personal Weather Stations






























Interactive Weather Map New forecast layout! Learn more

10-Day Weather Forecast

Advertisements
Track Severe Weather on mobile